Agana Heights, GU (96910)

2:54 PM ChST on August 31, 2016 (GMT +1000)
Maite | | Change Station
Active Advisory: Areal Flood Advisory

Elev 140 ft 13.48 °N, 144.76 °E | Updated 12 seconds ago

Clear
Clear
87.3 °F
Feels Like 101 °F
N
6.0
Wind Variable Wind from NW
Gusts 12.0 mph

Today
High -- | Low -- °F
--% Chance of Precip.
Yesterday
High -- | Low -- °F
Precip. -- in
Pressure 29.83 in
Visibility 10.0 miles
Clouds Clear
Heat Index 101 °F
Dew Point 78 °F
Humidity 75%
Rainfall 0.00 in
Snow Depth Not available.
6:09 AM 6:32 PM
Waning Crescent, 1% visible
METAR PGUM 310354Z VRB05KT 10SM CLR 32/24 A2986 RMK AO2 SLP102 T03170239
Pressure 29.83 in
Visibility 10.0 miles
Clouds Clear
Heat Index 101 °F
Dew Point 78 °F
Humidity 75%
Rainfall 0.00 in
Snow Depth Not available.
6:09 AM 6:32 PM
Waning Crescent, 1% visible
METAR PGUM 310354Z VRB05KT 10SM CLR 32/24 A2986 RMK AO2 SLP102 T03170239

10-Day Weather Forecast

Almanac

Astronomy

Aug. 31, 2016 Rise Set
Actual Time
Civil Twilight
Nautical Twilight
Astronomical Twilight
Moon
Length of Visible Light
Length of Day
Tomorrow will be .
, % of the Moon is Illuminated

Today's Extremes

State Highs State Lows

Community

WunderPhotos

Upload Photos

1,936,039 photos uploaded!

WunderBlog® & News

Nearby

Air Quality

  Air Quality AQ Index Pollutant
Not available.

Snow Depth

Station Depth Elevation

Earthquake Activity

City Distance Mag. Time & Date
Minimum magnitude displayed is 2.5.

Coastal Water Temperatures

Place Temperature

Stations

Nearby Weather Stations

Station Location Temp. Windchill Dew Point Humidity Wind Precip. Elev Updated Type
                   

Watches & Warnings

Areal Flood Advisory
Issued: 1:23 PM GMT Aug. 31, 2016 – National Weather Service

The National Weather Service in tiyan Guam has issued a

* Urban and Small Stream Flood Advisory for...
southern Guam

* until 330 PM chst

* at 123 PM chst... an observer reported heavy rain across the southern
half of Guam due to thunderstorms. This will cause Urban and Small Stream
flooding.

Rainfall of up to 3 inches is expected over the area. This additional rain will make minor flooding.

Lat... Lon 1325 14468 1334 14464 1341 14465 1343 14463
      1343 14466 1346 14469 1343 14478 1328 14476
      1323 14467


Ziobro



123 PM chst Wed Aug 31 2016

The National Weather Service in tiyan Guam has issued a

* Urban and Small Stream Flood Advisory for...
southern Guam

* until 330 PM chst

* at 123 PM chst... an observer reported heavy rain across the southern
half of Guam due to thunderstorms. This will cause Urban and Small Stream
flooding.

Rainfall of up to 3 inches is expected over the area. This additional rain will make minor flooding.

Lat... Lon 1325 14468 1334 14464 1341 14465 1343 14463
      1343 14466 1346 14469 1343 14478 1328 14476
      1323 14467


Ziobro